Time;durP1;ratioP1;P1;durP2;ratioP2;P2;SDS_P1;SDS_P2;PMS_P1;PMS_P2;Temp;Humidity;BMP_temperature;BMP_pressure;BME280_temperature;BME280_humidity;BME280_pressure;Samples;Min_cycle;Max_cycle;Signal;HPM_P1;HPM_P2
2022/10/12 00:00:00;;;;;;;36.13;19.80;;;;;;;3.37;81.20;99319.72;5113269;28;20070;-61
2022/10/12 00:02:25;;;;;;;32.35;16.48;;;;;;;3.42;81.73;99316.53;5113150;28;20063;-61
2022/10/12 00:04:51;;;;;;;33.22;19.15;;;;;;;3.44;79.81;99313.69;5111742;28;20316;-61
2022/10/12 00:07:17;;;;;;;37.63;19.23;;;;;;;3.42;80.01;99311.28;5112820;28;20446;-62
2022/10/12 00:09:42;;;;;;;32.67;20.23;;;;;;;3.37;78.62;99317.09;5111654;28;20044;-60
2022/10/12 00:12:08;;;;;;;26.25;14.27;;;;;;;3.38;80.53;99313.50;5112706;28;20040;-61
2022/10/12 00:14:37;;;;;;;21.63;12.35;;;;;;;3.40;80.87;99306.22;5112643;28;20047;-59
2022/10/12 00:17:03;;;;;;;26.02;16.23;;;;;;;3.45;81.68;99307.47;5112600;28;20036;-60
2022/10/12 00:19:29;;;;;;;28.30;14.18;;;;;;;3.46;82.27;99298.59;5111186;28;20056;-60
2022/10/12 00:21:54;;;;;;;19.77;11.80;;;;;;;3.54;82.71;99299.25;5112519;28;20038;-59
2022/10/12 00:24:20;;;;;;;35.35;19.77;;;;;;;3.52;78.28;99297.81;5112790;28;20078;-60
2022/10/12 00:26:49;;;;;;;45.10;21.63;;;;;;;3.44;77.38;99300.59;5112404;28;20054;-59
2022/10/12 00:29:14;;;;;;;40.28;21.63;;;;;;;3.39;77.29;99303.81;5112576;28;20050;-58
2022/10/12 00:31:40;;;;;;;39.38;20.95;;;;;;;3.34;77.40;99300.97;5112568;28;20044;-60
2022/10/12 00:34:05;;;;;;;34.85;19.50;;;;;;;3.30;78.13;99297.13;5112571;28;20052;-59
2022/10/12 00:36:34;;;;;;;35.75;20.02;;;;;;;3.27;77.43;99297.50;5112231;28;20097;-59
2022/10/12 00:39:01;;;;;;;34.63;20.00;;;;;;;3.27;78.17;99294.88;5112585;28;20480;-59
2022/10/12 00:41:32;;;;;;;34.10;18.35;;;;;;;3.24;78.15;99290.84;5112297;28;20076;-59
2022/10/12 00:44:00;;;;;;;40.65;19.05;;;;;;;3.19;79.12;99296.63;5112420;28;20532;-60
2022/10/12 00:46:41;;;;;;;32.08;18.45;;;;;;;3.19;79.95;99283.53;5112008;28;20127;-60
2022/10/12 00:49:13;;;;;;;31.35;18.83;;;;;;;3.22;79.31;99290.19;5110907;28;20534;-59
2022/10/12 00:51:40;;;;;;;41.25;19.85;;;;;;;3.20;78.75;99286.97;5110588;28;20039;-59
2022/10/12 00:54:09;;;;;;;30.58;17.75;;;;;;;3.23;79.89;99293.63;5110911;28;20054;-60
2022/10/12 00:56:37;;;;;;;33.15;17.02;;;;;;;3.25;80.43;99294.25;5110679;28;20067;-58
2022/10/12 00:59:06;;;;;;;27.35;15.25;;;;;;;3.27;81.24;99294.88;5110738;28;20043;-59
2022/10/12 01:01:32;;;;;;;32.75;15.85;;;;;;;3.29;80.93;99296.28;5111805;28;20389;-60
2022/10/12 01:03:58;;;;;;;34.15;17.90;;;;;;;3.32;80.83;99287.22;5110567;28;20119;-59
2022/10/12 01:06:24;;;;;;;40.08;17.95;;;;;;;3.29;79.31;99285.81;5111782;28;20088;-59
2022/10/12 01:08:50;;;;;;;32.83;18.70;;;;;;;3.27;78.40;99289.63;5112227;28;20054;-59
2022/10/12 01:11:15;;;;;;;31.00;18.75;;;;;;;3.23;78.86;99289.19;5111735;28;20062;-59
2022/10/12 01:13:41;;;;;;;41.17;21.17;;;;;;;3.21;77.77;99288.59;5111912;28;20127;-59
2022/10/12 01:16:26;;;;;;;37.65;19.60;;;;;;;3.15;77.98;99284.94;5111710;28;20480;-61
2022/10/12 01:19:18;;;;;;;32.65;17.20;;;;;;;3.14;80.15;99280.66;5110421;28;20057;-59
2022/10/12 01:22:05;;;;;;;31.98;17.58;;;;;;;3.14;79.63;99272.00;5110264;28;20492;-59
2022/10/12 01:24:59;;;;;;;33.38;17.52;;;;;;;3.18;79.20;99279.31;5110488;28;20043;-59
2022/10/12 01:27:33;;;;;;;22.52;13.50;;;;;;;3.23;80.86;99278.72;5080852;28;20043;-59
2022/10/12 01:30:11;;;;;;;23.55;12.32;;;;;;;3.29;80.62;99275.31;5112416;28;20073;-58
2022/10/12 01:32:52;;;;;;;26.75;13.07;;;;;;;3.33;80.43;99265.28;5110764;28;20078;-59
2022/10/12 01:35:20;;;;;;;34.55;16.58;;;;;;;3.30;78.31;99266.47;5110474;28;20051;-58
2022/10/12 01:37:55;;;;;;;37.80;17.65;;;;;;;3.24;78.30;99266.44;5110542;28;20067;-60
2022/10/12 01:40:53;;;;;;;43.35;21.13;;;;;;;3.14;76.33;99269.38;5110681;28;20093;-60
2022/10/12 01:43:22;;;;;;;31.98;16.45;;;;;;;3.06;77.55;99256.44;5109706;28;20048;-60
2022/10/12 01:45:48;;;;;;;38.42;19.17;;;;;;;3.08;78.67;99264.91;5110126;28;20046;-58
2022/10/12 01:48:15;;;;;;;38.83;19.40;;;;;;;3.08;76.60;99262.31;5110199;28;20051;-59
2022/10/12 01:50:53;;;;;;;40.45;19.15;;;;;;;3.00;74.85;99251.97;5111293;28;20036;-59
2022/10/12 01:53:49;;;;;;;36.63;19.90;;;;;;;2.96;75.24;99256.78;5111647;28;20047;-59
2022/10/12 01:56:20;;;;;;;37.60;20.40;;;;;;;2.82;75.38;99250.63;5111502;28;20035;-59
2022/10/12 01:59:07;;;;;;;40.55;19.70;;;;;;;2.78;76.27;99249.41;5111568;28;20052;-59
2022/10/12 02:01:45;;;;;;;34.40;21.00;;;;;;;2.77;76.82;99253.03;5111045;28;20036;-59
2022/10/12 02:04:18;;;;;;;31.50;16.65;;;;;;;2.74;77.94;99258.66;5115587;28;20043;-58
2022/10/12 02:06:48;;;;;;;29.20;16.67;;;;;;;2.77;78.76;99252.22;5115172;28;20045;-60
2022/10/12 02:09:21;;;;;;;37.35;18.13;;;;;;;2.80;78.70;99247.41;5114147;28;20122;-60
2022/10/12 02:11:50;;;;;;;32.63;16.85;;;;;;;2.85;78.13;99252.88;5113750;28;20075;-60
2022/10/12 02:14:18;;;;;;;28.30;14.60;;;;;;;2.92;80.06;99245.09;5113938;28;20041;-60
2022/10/12 02:16:55;;;;;;;21.67;12.65;;;;;;;3.02;79.87;99242.13;5113684;28;20035;-58
2022/10/12 02:19:25;;;;;;;36.90;17.95;;;;;;;3.02;78.75;99244.75;5113770;28;20052;-60
2022/10/12 02:22:12;;;;;;;43.40;18.35;;;;;;;2.89;76.48;99241.03;5100050;28;20048;-58
2022/10/12 02:24:40;;;;;;;31.00;15.90;;;;;;;2.89;78.35;99245.47;5096769;28;20043;-60
2022/10/12 02:27:08;;;;;;;33.90;16.83;;;;;;;2.83;77.68;99241.81;5096669;28;20123;-60
2022/10/12 02:29:38;;;;;;;38.72;19.85;;;;;;;2.82;77.46;99248.03;5115048;28;20405;-60
2022/10/12 02:32:07;;;;;;;;;;;;;;;2.78;77.48;99252.03;5097223;28;20035;-59
2022/10/12 02:34:37;;;;;;;42.35;17.05;;;;;;;2.76;78.26;99240.13;5115054;28;20407;-59
2022/10/12 02:37:16;;;;;;;18.25;12.18;;;;;;;2.85;79.67;99246.84;5114820;28;20048;-59
2022/10/12 02:39:49;;;;;;;34.05;16.23;;;;;;;2.91;79.13;99254.75;5113421;28;20059;-60
2022/10/12 02:42:21;;;;;;;25.33;14.60;;;;;;;2.91;78.25;99244.28;5113580;28;20044;-59
2022/10/12 02:44:48;;;;;;;30.17;13.88;;;;;;;2.94;78.38;99249.13;5113428;28;20039;-60
2022/10/12 02:47:14;;;;;;;20.58;11.05;;;;;;;2.96;78.81;99247.13;5114469;28;20070;-59
2022/10/12 02:49:41;;;;;;;19.75;9.13;;;;;;;3.05;78.62;99245.16;5114715;28;20412;-60
2022/10/12 02:52:06;;;;;;;15.50;9.18;;;;;;;3.12;77.73;99246.03;5113377;28;20048;-60
2022/10/12 02:54:32;;;;;;;15.18;8.43;;;;;;;3.21;77.39;99244.06;5114204;28;20393;-60
2022/10/12 02:56:58;;;;;;;19.73;9.30;;;;;;;3.27;77.58;99239.88;5112842;28;20488;-60
2022/10/12 02:59:23;;;;;;;20.85;11.68;;;;;;;3.26;76.74;99240.84;5113125;28;20055;-60
2022/10/12 03:01:49;;;;;;;21.33;12.25;;;;;;;3.24;76.43;99245.50;5114531;28;20097;-59
2022/10/12 03:04:15;;;;;;;20.98;9.93;;;;;;;3.22;77.12;99237.00;5114757;28;20093;-59
2022/10/12 03:06:43;;;;;;;20.60;9.63;;;;;;;3.20;76.91;99237.19;5114356;28;20079;-59
2022/10/12 03:09:09;;;;;;;13.82;7.47;;;;;;;3.23;76.91;99238.63;5113045;28;20039;-60
2022/10/12 03:11:36;;;;;;;26.30;11.85;;;;;;;3.19;76.37;99235.56;5114087;28;20458;-60
2022/10/12 03:14:02;;;;;;;20.40;10.20;;;;;;;3.18;76.70;99236.59;5114174;28;20142;-60
2022/10/12 03:16:28;;;;;;;14.73;8.43;;;;;;;3.19;76.86;99241.63;5114326;28;20456;-59
2022/10/12 03:18:53;;;;;;;12.55;7.97;;;;;;;3.23;77.12;99238.63;5112935;28;20051;-60
2022/10/12 03:21:19;;;;;;;13.20;8.63;;;;;;;3.25;77.08;99240.03;5095416;28;20055;-60
2022/10/12 03:23:45;;;;;;;17.52;8.35;;;;;;;3.30;76.68;99237.66;5113901;28;20043;-59
2022/10/12 03:26:10;;;;;;;14.10;6.90;;;;;;;3.34;76.46;99238.88;5114073;28;20035;-60
2022/10/12 03:28:36;;;;;;;19.35;9.27;;;;;;;3.34;75.90;99243.31;5114109;28;20040;-60
2022/10/12 03:31:02;;;;;;;12.70;7.50;;;;;;;3.31;76.31;99234.03;5095448;28;20047;-60
2022/10/12 03:33:28;;;;;;;14.90;8.77;;;;;;;3.29;75.73;99233.41;5113964;28;20483;-60
2022/10/12 03:35:54;;;;;;;22.67;12.05;;;;;;;3.27;75.44;99229.38;5112588;28;20048;-60
2022/10/12 03:38:19;;;;;;;35.70;19.58;;;;;;;3.18;75.81;99228.72;5113563;28;20063;-59
2022/10/12 03:40:46;;;;;;;30.30;14.27;;;;;;;3.15;75.77;99229.94;5113512;28;20046;-60
2022/10/12 03:43:12;;;;;;;29.45;15.90;;;;;;;3.11;75.28;99220.00;5095178;28;20189;-59
2022/10/12 03:45:38;;;;;;;28.27;15.77;;;;;;;3.11;75.63;99236.53;5113248;28;20038;-60
2022/10/12 03:48:05;;;;;;;27.75;14.75;;;;;;;3.12;75.69;99237.38;5113598;28;20050;-60
2022/10/12 03:50:35;;;;;;;30.85;14.65;;;;;;;3.16;75.83;99234.16;5113216;28;20447;-60
2022/10/12 03:53:03;;;;;;;21.73;10.68;;;;;;;3.25;75.98;99229.56;5113274;28;20435;-59
2022/10/12 03:55:28;;;;;;;22.95;9.48;;;;;;;3.35;75.71;99232.66;5113476;28;20050;-60
2022/10/12 03:57:54;;;;;;;29.23;10.43;;;;;;;3.46;74.78;99233.91;5111772;28;20027;-59
2022/10/12 04:00:20;;;;;;;24.35;11.13;;;;;;;3.51;74.82;99239.38;5112027;28;20129;-59
2022/10/12 04:02:45;;;;;;;20.08;8.82;;;;;;;3.58;74.69;99234.16;5113011;28;20168;-61
2022/10/12 04:05:11;;;;;;;35.65;15.23;;;;;;;3.66;73.54;99238.44;5113008;28;20096;-60
2022/10/12 04:07:37;;;;;;;28.40;13.45;;;;;;;3.67;73.58;99240.84;5112685;28;20047;-60
2022/10/12 04:10:03;;;;;;;28.83;14.40;;;;;;;3.72;73.22;99233.19;5112519;28;20039;-60
2022/10/12 04:12:29;;;;;;;28.30;13.38;;;;;;;3.78;73.02;99242.09;5112978;28;20109;-60
2022/10/12 04:14:55;;;;;;;25.55;11.80;;;;;;;3.85;73.17;99237.66;5113303;28;20488;-59
2022/10/12 04:17:21;;;;;;;29.65;12.32;;;;;;;3.96;72.56;99246.78;5111574;28;20039;-60
2022/10/12 04:19:46;;;;;;;23.77;10.98;;;;;;;4.05;72.25;99235.91;5094726;28;20071;-60
2022/10/12 04:22:12;;;;;;;19.38;11.10;;;;;;;4.19;71.40;99238.56;5111862;28;20042;-61
2022/10/12 04:24:37;;;;;;;24.88;10.70;;;;;;;4.26;71.70;99237.56;5112335;28;20047;-59
2022/10/12 04:27:03;;;;;;;17.45;9.07;;;;;;;4.32;71.33;99238.56;5112753;28;20122;-59
2022/10/12 04:29:29;;;;;;;20.17;10.85;;;;;;;4.47;71.13;99236.59;5112957;28;20479;-61
2022/10/12 04:31:54;;;;;;;20.38;10.55;;;;;;;4.54;70.80;99237.38;5112492;28;20127;-59
2022/10/12 04:34:20;;;;;;;17.35;9.05;;;;;;;4.62;71.07;99225.88;5112930;28;20131;-59
2022/10/12 04:36:46;;;;;;;16.23;9.32;;;;;;;4.74;70.82;99228.72;5112455;28;20043;-59
2022/10/12 04:39:12;;;;;;;16.63;8.90;;;;;;;4.86;70.49;99236.78;5111409;28;20100;-60
2022/10/12 04:41:38;;;;;;;17.00;8.32;;;;;;;5.01;69.43;99234.72;5112401;28;20043;-60
2022/10/12 04:44:05;;;;;;;11.45;7.78;;;;;;;5.11;69.46;99232.47;5112535;28;20116;-60
2022/10/12 04:46:31;;;;;;;16.55;9.95;;;;;;;5.20;68.80;99238.31;5111208;28;20047;-59
2022/10/12 04:48:57;;;;;;;21.13;10.27;;;;;;;5.34;69.33;99236.47;5112222;28;20121;-61
2022/10/12 04:51:23;;;;;;;15.57;8.90;;;;;;;5.38;68.82;99235.88;5112044;28;20503;-60
2022/10/12 04:53:49;;;;;;;20.08;10.25;;;;;;;5.50;68.80;99245.72;5112277;28;20442;-60
2022/10/12 04:56:15;;;;;;;11.65;7.38;;;;;;;5.57;69.15;99233.38;5110886;28;20531;-60
2022/10/12 04:58:40;;;;;;;16.92;9.27;;;;;;;5.67;68.33;99234.53;5112201;28;20072;-59
2022/10/12 05:01:06;;;;;;;15.75;8.63;;;;;;;5.69;69.35;99242.22;5111591;28;20048;-61
2022/10/12 05:03:32;;;;;;;21.27;8.57;;;;;;;5.67;68.93;99237.16;5111758;27;20442;-60
2022/10/12 05:05:57;;;;;;;16.88;7.63;;;;;;;5.68;68.74;99238.78;5111854;28;20039;-61
2022/10/12 05:08:23;;;;;;;27.95;9.95;;;;;;;5.64;69.41;99240.19;5110725;28;20552;-63
2022/10/12 05:10:49;;;;;;;25.90;10.23;;;;;;;5.58;70.15;99235.78;5112121;28;20096;-60
2022/10/12 05:13:14;;;;;;;26.42;12.15;;;;;;;5.61;69.88;99235.34;5110539;28;20447;-60
2022/10/12 05:15:41;;;;;;;17.95;9.52;;;;;;;5.69;69.37;99236.97;5111769;28;20134;-61
2022/10/12 05:18:07;;;;;;;19.95;9.73;;;;;;;5.76;68.88;99234.28;5111828;28;20062;-60
2022/10/12 05:20:32;;;;;;;24.92;9.02;;;;;;;5.83;69.06;99240.34;5111492;28;20083;-60
2022/10/12 05:22:58;;;;;;;12.80;8.13;;;;;;;5.84;68.15;99239.31;5111653;28;20042;-60
2022/10/12 05:25:24;;;;;;;16.60;9.48;;;;;;;5.96;68.37;99248.19;5111515;28;20043;-60
2022/10/12 05:27:50;;;;;;;17.95;9.30;;;;;;;6.02;68.17;99241.28;5111435;28;20423;-62
2022/10/12 05:30:16;;;;;;;14.32;7.07;;;;;;;6.11;66.03;99247.91;5111805;28;20042;-60
2022/10/12 05:32:43;;;;;;;15.02;8.18;;;;;;;6.21;66.24;99243.00;5111525;28;20040;-60
2022/10/12 05:35:10;;;;;;;25.00;12.00;;;;;;;6.29;66.96;99240.09;5111830;28;20040;-58
2022/10/12 05:37:35;;;;;;;19.08;8.38;;;;;;;6.36;64.95;99245.31;5114858;28;20040;-58
2022/10/12 05:40:01;;;;;;;24.45;11.07;;;;;;;6.41;66.59;99248.09;5114513;28;20055;-58
2022/10/12 05:42:29;;;;;;;30.52;11.60;;;;;;;6.48;66.44;99250.72;5115612;28;20126;-59
2022/10/12 05:44:55;;;;;;;13.38;8.50;;;;;;;6.51;66.12;99243.19;5114606;28;20543;-59
2022/10/12 05:47:21;;;;;;;20.75;9.20;;;;;;;6.51;66.19;99250.28;5111411;28;20043;-58
2022/10/12 05:49:46;;;;;;;20.83;9.57;;;;;;;6.55;66.76;99249.63;5114340;28;20128;-57
2022/10/12 05:52:12;;;;;;;17.20;8.35;;;;;;;6.56;66.03;99245.19;5114007;28;20032;-59
2022/10/12 05:54:38;;;;;;;24.65;10.68;;;;;;;6.60;66.91;99249.00;5115411;28;20400;-58
2022/10/12 05:57:03;;;;;;;21.10;9.73;;;;;;;6.69;67.18;99246.91;5112632;28;20165;-60
2022/10/12 05:59:29;;;;;;;19.65;9.57;;;;;;;6.75;66.48;99246.03;5111548;28;20040;-59
2022/10/12 06:01:54;;;;;;;11.18;8.05;;;;;;;6.80;65.67;99241.72;5113186;28;20048;-59
2022/10/12 06:04:21;;;;;;;15.23;8.07;;;;;;;6.89;65.44;99244.09;5112360;28;20590;-59
2022/10/12 06:06:46;;;;;;;14.50;7.82;;;;;;;6.99;64.54;99257.56;5111442;28;20451;-59
2022/10/12 06:09:12;;;;;;;17.55;9.07;;;;;;;7.04;64.98;99250.63;5112288;28;20043;-59
2022/10/12 06:11:38;;;;;;;16.00;8.30;;;;;;;6.98;64.43;99251.50;5114071;28;20050;-58
2022/10/12 06:14:04;;;;;;;16.45;8.48;;;;;;;7.02;64.74;99247.41;5112661;28;20051;-59
2022/10/12 06:16:29;;;;;;;19.23;9.68;;;;;;;7.09;64.31;99251.78;5113961;28;20035;-57
2022/10/12 06:19:02;;;;;;;15.73;9.60;;;;;;;7.19;64.05;99254.75;5114277;28;20027;-59
2022/10/12 06:21:33;;;;;;;15.65;9.30;;;;;;;7.32;63.75;99257.22;5061461;28;20047;-59
2022/10/12 06:23:59;;;;;;;15.90;7.65;;;;;;;7.47;63.46;99257.69;5111672;28;20048;-60
2022/10/12 06:26:25;;;;;;;18.05;8.82;;;;;;;7.60;62.92;99251.47;5112554;28;20040;-59
2022/10/12 06:28:50;;;;;;;15.23;7.97;;;;;;;7.73;61.92;99246.03;5113363;28;20064;-60
2022/10/12 06:31:16;;;;;;;15.10;7.50;;;;;;;7.84;61.16;99241.03;5111714;28;20071;-60
2022/10/12 06:33:42;;;;;;;10.05;6.40;;;;;;;7.97;60.30;99243.47;5112633;28;20044;-60
2022/10/12 06:36:07;;;;;;;12.93;7.28;;;;;;;8.22;60.53;99243.34;5113282;28;20088;-59
2022/10/12 06:38:33;;;;;;;10.70;6.47;;;;;;;8.32;59.55;99246.22;5113592;28;20050;-59
2022/10/12 06:40:58;;;;;;;10.43;6.78;;;;;;;8.28;59.34;99245.09;5113020;28;20594;-58
2022/10/12 06:43:24;;;;;;;13.27;5.82;;;;;;;8.37;59.00;99242.94;5113710;28;20040;-59
2022/10/12 06:45:50;;;;;;;12.40;6.07;;;;;;;8.55;58.87;99236.78;5112089;28;20424;-57
2022/10/12 06:48:16;;;;;;;10.38;5.75;;;;;;;8.58;59.24;99231.84;5113536;28;20044;-57
2022/10/12 06:50:42;;;;;;;10.02;6.10;;;;;;;8.69;59.19;99230.25;5113899;28;20061;-58
2022/10/12 06:53:07;;;;;;;11.57;5.88;;;;;;;8.78;59.01;99231.53;5113896;28;20081;-58
2022/10/12 06:55:33;;;;;;;13.60;6.10;;;;;;;8.75;58.11;99229.34;5113926;28;20050;-55
2022/10/12 06:57:59;;;;;;;11.30;5.95;;;;;;;8.74;59.12;99233.03;5114226;28;20039;-63
2022/10/12 07:00:25;;;;;;;9.15;6.68;;;;;;;8.78;58.72;99230.72;5113961;28;20309;-63
2022/10/12 07:02:51;;;;;;;14.82;6.80;;;;;;;8.81;59.13;99239.00;5111774;28;20039;-59
2022/10/12 07:05:18;;;;;;;12.32;6.85;;;;;;;8.91;58.99;99227.84;5112342;28;20040;-58
2022/10/12 07:07:44;;;;;;;16.77;8.05;;;;;;;9.12;59.14;99237.06;5113520;28;20043;-59
2022/10/12 07:10:10;;;;;;;10.40;6.85;;;;;;;9.41;58.64;99235.28;5112454;28;20213;-59
2022/10/12 07:12:37;;;;;;;10.30;7.05;;;;;;;9.67;57.67;99235.78;5110926;28;20048;-60
2022/10/12 07:15:06;;;;;;;9.07;6.45;;;;;;;9.80;56.53;99232.88;5095283;28;20096;-58
2022/10/12 07:17:32;;;;;;;12.48;6.88;;;;;;;9.82;56.27;99241.38;5112824;28;20047;-57
2022/10/12 07:19:58;;;;;;;13.93;6.93;;;;;;;9.90;56.93;99237.56;5113491;28;20084;-59
2022/10/12 07:22:23;;;;;;;14.18;7.55;;;;;;;9.95;56.23;99248.25;5112594;28;20092;-60
2022/10/12 07:24:49;;;;;;;16.77;6.93;;;;;;;10.00;56.52;99240.41;5113455;28;20454;-59
2022/10/12 07:27:15;;;;;;;16.70;7.32;;;;;;;10.04;56.20;99241.53;5112875;28;20508;-60
2022/10/12 07:29:41;;;;;;;8.98;6.55;;;;;;;9.93;57.06;99243.16;5111870;27;20459;-59
2022/10/12 07:32:08;;;;;;;11.20;7.10;;;;;;;9.86;58.04;99244.38;5112197;28;20130;-59
2022/10/12 07:34:33;;;;;;;13.55;7.50;;;;;;;9.76;58.43;99244.97;5111076;28;20050;-60
2022/10/12 07:36:59;;;;;;;15.07;8.93;;;;;;;9.74;58.70;99244.41;5111433;28;20040;-59
2022/10/12 07:39:25;;;;;;;22.02;12.90;;;;;;;9.75;58.70;99243.34;5111555;28;20043;-58
2022/10/12 07:41:51;;;;;;;16.65;11.27;;;;;;;9.72;58.33;99241.19;5111693;28;20558;-60
2022/10/12 07:44:18;;;;;;;16.80;9.13;;;;;;;9.75;58.26;99241.50;5108238;28;20505;-59
2022/10/12 07:46:45;;;;;;;14.43;8.00;;;;;;;9.78;57.68;99245.53;5111600;28;20118;-60
2022/10/12 07:49:12;;;;;;;16.75;8.45;;;;;;;9.77;57.70;99236.00;5092677;28;20044;-59
2022/10/12 07:51:38;;;;;;;16.02;7.43;;;;;;;9.73;57.01;99240.94;5112017;28;20377;-59
2022/10/12 07:54:04;;;;;;;12.23;7.50;;;;;;;9.71;57.67;99244.88;5113213;28;20048;-60
2022/10/12 07:56:29;;;;;;;12.63;7.47;;;;;;;9.75;59.20;99240.72;5111428;28;20404;-56
2022/10/12 07:58:56;;;;;;;15.50;8.85;;;;;;;9.76;58.38;99251.06;5112402;28;20047;-58
2022/10/12 08:01:28;;;;;;;20.67;7.80;;;;;;;9.82;58.20;99251.16;5111603;28;20048;-58
2022/10/12 08:03:54;;;;;;;15.45;7.93;;;;;;;9.85;58.72;99248.84;5112674;28;20039;-57
2022/10/12 08:06:22;;;;;;;14.00;7.25;;;;;;;9.92;58.50;99254.00;5110187;28;20073;-59
2022/10/12 08:08:48;;;;;;;10.80;7.03;;;;;;;9.95;58.51;99248.25;5111259;28;20067;-57
2022/10/12 08:11:14;;;;;;;16.50;7.85;;;;;;;9.95;58.12;99246.41;5110811;28;20118;-58
2022/10/12 08:13:42;;;;;;;14.20;6.70;;;;;;;10.05;58.38;99245.78;5111459;28;20415;-58
2022/10/12 08:16:11;;;;;;;14.57;6.78;;;;;;;10.13;57.86;99255.19;5109700;28;20047;-60
2022/10/12 08:18:36;;;;;;;12.10;6.63;;;;;;;10.16;57.10;99241.47;5110153;28;20048;-59
2022/10/12 08:21:06;;;;;;;15.95;7.35;;;;;;;10.19;57.59;99248.94;5110005;28;20121;-57
2022/10/12 08:23:36;;;;;;;14.77;6.78;;;;;;;10.13;57.09;99245.41;5109556;28;20050;-58
2022/10/12 08:26:02;;;;;;;17.70;6.45;;;;;;;10.18;57.51;99247.34;5112378;28;20118;-59
2022/10/12 08:28:28;;;;;;;13.50;6.47;;;;;;;10.20;57.58;99255.84;5111720;28;20126;-58
2022/10/12 08:30:53;;;;;;;11.27;6.57;;;;;;;10.17;57.71;99253.66;5110620;28;20053;-57
2022/10/12 08:33:19;;;;;;;13.02;6.40;;;;;;;10.10;57.20;99255.66;5111372;28;20063;-58
2022/10/12 08:35:46;;;;;;;11.32;5.88;;;;;;;10.11;57.36;99258.06;5111383;28;20039;-59
2022/10/12 08:38:13;;;;;;;11.23;5.50;;;;;;;10.01;57.74;99252.59;5111186;28;20437;-59
2022/10/12 08:40:52;;;;;;;14.15;5.75;;;;;;;10.00;57.66;99251.00;5109461;28;20044;-57
2022/10/12 08:43:36;;;;;;;13.77;6.38;;;;;;;10.06;58.21;99249.22;5109465;28;20120;-59
2022/10/12 08:46:03;;;;;;;15.25;6.43;;;;;;;10.11;57.43;99251.97;5109709;28;20035;-58
2022/10/12 08:48:50;;;;;;;15.57;6.25;;;;;;;10.11;57.49;99255.41;5076291;28;20073;-59
2022/10/12 08:51:21;;;;;;;17.98;6.88;;;;;;;10.13;57.44;99261.28;5092326;28;20036;-58
2022/10/12 08:53:53;;;;;;;12.85;6.88;;;;;;;10.09;57.89;99244.28;5092335;28;20051;-59
2022/10/12 08:56:21;;;;;;;15.52;6.75;;;;;;;10.11;58.30;99246.66;5107655;28;20035;-59
2022/10/12 08:58:48;;;;;;;18.63;6.20;;;;;;;10.12;57.66;99238.50;5109384;28;20363;-59
2022/10/12 09:01:26;;;;;;;9.93;5.78;;;;;;;10.15;57.34;99238.03;5109883;28;20129;-57
2022/10/12 09:04:05;;;;;;;14.50;6.13;;;;;;;10.23;57.54;99242.94;5092130;28;20046;-59
2022/10/12 09:06:40;;;;;;;18.27;6.47;;;;;;;10.32;57.44;99239.91;5109947;28;20202;-58
2022/10/12 09:09:21;;;;;;;9.32;5.82;;;;;;;10.41;57.28;99235.81;5092801;28;20047;-58
2022/10/12 09:11:49;;;;;;;9.80;5.45;;;;;;;10.53;56.72;99241.06;5109953;28;20423;-58
2022/10/12 09:14:25;;;;;;;13.88;5.70;;;;;;;10.62;56.54;99232.47;5110830;28;20573;-59
2022/10/12 09:16:59;;;;;;;12.48;5.90;;;;;;;10.66;56.00;99244.19;5110197;28;20044;-59
2022/10/12 09:19:34;;;;;;;12.15;6.45;;;;;;;10.72;56.00;99239.78;5092860;28;20039;-58
2022/10/12 09:22:02;;;;;;;12.05;5.68;;;;;;;10.71;56.09;99232.06;5111363;28;20074;-57
2022/10/12 09:24:33;;;;;;;12.68;6.10;;;;;;;10.68;57.18;99242.13;5111796;28;20118;-59
2022/10/12 09:26:59;;;;;;;8.82;5.88;;;;;;;10.74;56.49;99245.66;5074903;28;20397;-57
2022/10/12 09:29:26;;;;;;;13.27;6.97;;;;;;;10.79;56.61;99245.72;5108886;28;20078;-58
2022/10/12 09:32:26;;;;;;;18.15;6.75;;;;;;;10.86;56.88;99248.22;5092545;28;20043;-58
2022/10/12 09:34:52;;;;;;;13.48;6.60;;;;;;;10.81;56.78;99238.31;5110604;28;20192;-57
2022/10/12 09:37:22;;;;;;;9.98;5.55;;;;;;;10.83;56.40;99238.09;5109351;28;20044;-59
2022/10/12 09:39:48;;;;;;;12.77;6.35;;;;;;;10.88;56.50;99241.63;5109101;28;20040;-59
2022/10/12 09:42:14;;;;;;;14.13;6.25;;;;;;;10.95;56.12;99246.75;5107732;28;20048;-59
2022/10/12 09:44:43;;;;;;;11.48;5.35;;;;;;;10.92;56.24;99241.94;5110816;28;20048;-58
2022/10/12 09:47:27;;;;;;;12.02;6.03;;;;;;;10.96;55.88;99242.25;5108631;28;20063;-55
2022/10/12 09:49:57;;;;;;;8.73;5.75;;;;;;;10.90;55.51;99244.03;5110545;28;20047;-56
2022/10/12 09:52:27;;;;;;;8.95;5.88;;;;;;;10.88;55.89;99238.16;5111380;28;20043;-57
2022/10/12 09:54:58;;;;;;;15.65;7.30;;;;;;;10.97;55.79;99247.31;5109162;28;20051;-57
2022/10/12 09:57:33;;;;;;;17.48;6.28;;;;;;;11.05;55.76;99248.75;5110596;28;20052;-61
2022/10/12 10:00:01;;;;;;;10.40;6.15;;;;;;;11.05;56.03;99254.84;5074899;28;20047;-60
2022/10/12 10:02:48;;;;;;;9.38;5.80;;;;;;;11.06;56.28;99253.81;5110549;28;20044;-58
2022/10/12 10:05:34;;;;;;;11.50;6.80;;;;;;;11.08;56.01;99254.34;5110179;28;20099;-57
2022/10/12 10:08:22;;;;;;;14.07;6.15;;;;;;;11.13;55.96;99251.00;5108975;28;20031;-58
2022/10/12 10:10:54;;;;;;;10.30;5.88;;;;;;;11.16;55.87;99261.09;5108286;28;20067;-58
2022/10/12 10:13:32;;;;;;;11.57;6.00;;;;;;;11.23;56.04;99256.41;5053086;28;20295;-60
2022/10/12 10:16:04;;;;;;;9.00;5.60;;;;;;;11.28;55.27;99251.19;5104487;28;20081;-59
2022/10/12 10:18:36;;;;;;;12.13;6.65;;;;;;;11.28;55.45;99258.34;5102276;28;20046;-58
2022/10/12 10:21:04;;;;;;;11.82;6.28;;;;;;;11.17;55.60;99252.09;5086638;28;20428;-58
2022/10/12 10:23:34;;;;;;;15.15;6.93;;;;;;;11.04;56.26;99261.22;5068528;28;20512;-59
2022/10/12 10:26:06;;;;;;;16.13;5.80;;;;;;;10.93;56.29;99266.59;5090916;28;20399;-60
2022/10/12 10:28:34;;;;;;;12.48;6.10;;;;;;;10.72;56.91;99262.84;5089823;28;20093;-58
2022/10/12 10:31:03;;;;;;;10.35;5.90;;;;;;;10.83;56.54;99273.38;5091253;28;20531;-59
2022/10/12 10:33:31;;;;;;;12.80;5.90;;;;;;;10.94;56.78;99261.03;5095442;28;20043;-57
2022/10/12 10:36:19;;;;;;;12.05;6.13;;;;;;;10.95;56.32;99273.28;5097886;28;20074;-58
2022/10/12 10:39:19;;;;;;;11.98;6.15;;;;;;;11.02;56.73;99267.78;5094089;28;20126;-58
2022/10/12 10:41:46;;;;;;;10.75;6.63;;;;;;;11.12;56.89;99266.09;5070359;28;20051;-59
2022/10/12 10:44:25;;;;;;;14.90;7.13;;;;;;;11.19;56.36;99265.94;5088427;28;20059;-59
2022/10/12 10:46:52;;;;;;;18.90;7.55;;;;;;;11.21;56.97;99271.00;5067603;28;20428;-58
2022/10/12 10:49:45;;;;;;;16.17;8.45;;;;;;;11.14;57.00;99271.94;5017323;28;20338;-58
2022/10/12 10:52:29;;;;;;;13.38;7.13;;;;;;;11.04;57.68;99271.03;5046484;28;20090;-60
2022/10/12 10:55:21;;;;;;;11.73;7.07;;;;;;;11.00;57.72;99264.56;5069106;28;20044;-60
2022/10/12 10:57:49;;;;;;;;;;;;;;;10.90;58.02;99267.88;5049078;28;20056;-60
2022/10/12 11:00:18;;;;;;;12.18;6.47;;;;;;;11.00;58.22;99272.53;5063042;28;20423;-60
2022/10/12 11:02:50;;;;;;;13.68;5.22;;;;;;;10.88;59.40;99276.09;5050916;28;20084;-62
2022/10/12 11:05:30;;;;;;;8.52;4.03;;;;;;;10.73;59.50;99278.50;5050023;28;20079;-59
2022/10/12 11:07:59;;;;;;;5.82;4.25;;;;;;;10.72;59.31;99278.75;5049024;28;20048;-60
2022/10/12 11:10:40;;;;;;;7.40;4.30;;;;;;;10.65;59.66;99281.56;5068129;28;20044;-59
2022/10/12 11:13:21;;;;;;;5.40;3.88;;;;;;;10.67;60.73;99290.06;5075597;28;20065;-58
2022/10/12 11:15:58;;;;;;;7.85;4.55;;;;;;;10.58;60.93;99283.53;5099105;28;20464;-59
2022/10/12 11:18:37;;;;;;;7.28;4.07;;;;;;;10.46;61.13;99289.72;5091551;28;20100;-58
2022/10/12 11:21:08;;;;;;;14.87;7.20;;;;;;;10.45;61.53;99289.97;5103059;28;20143;-59
2022/10/12 11:23:53;;;;;;;11.27;5.85;;;;;;;10.55;61.86;99295.44;5088362;28;20537;-59
2022/10/12 11:26:30;;;;;;;7.47;3.72;;;;;;;10.45;61.43;99300.56;5070421;28;20044;-59
2022/10/12 11:28:58;;;;;;;10.05;4.65;;;;;;;10.42;61.67;99304.50;5087567;28;20036;-59
2022/10/12 11:31:36;;;;;;;8.15;4.45;;;;;;;10.34;61.94;99304.06;5090266;28;20461;-60
2022/10/12 11:34:05;;;;;;;6.13;4.10;;;;;;;10.35;62.44;99301.19;5101874;28;20129;-59
2022/10/12 11:36:33;;;;;;;12.88;7.95;;;;;;;10.30;61.97;99298.44;5091022;28;20409;-59
2022/10/12 11:39:03;;;;;;;17.42;9.48;;;;;;;10.29;62.82;99298.66;5110097;28;20048;-57